sensor_id;sensor_type;location;lat;lon;timestamp;pressure;altitude;pressure_sealevel;temperature;humidity
35419;BME280;21525;41.240;16.500;2024-01-15T00:01:56;100728.66;;;17.57;52.41
35419;BME280;21525;41.240;16.500;2024-01-15T00:04:21;100732.22;;;17.56;51.88
35419;BME280;21525;41.240;16.500;2024-01-15T00:06:49;100721.13;;;17.49;51.98
35419;BME280;21525;41.240;16.500;2024-01-15T00:09:15;100716.25;;;17.60;52.18
35419;BME280;21525;41.240;16.500;2024-01-15T00:11:42;100711.53;;;17.26;53.15
35419;BME280;21525;41.240;16.500;2024-01-15T00:14:08;100710.66;;;17.48;52.63
35419;BME280;21525;41.240;16.500;2024-01-15T00:16:34;100706.38;;;17.45;52.25
35419;BME280;21525;41.240;16.500;2024-01-15T00:19:00;100690.91;;;17.79;50.61
35419;BME280;21525;41.240;16.500;2024-01-15T00:21:26;100701.22;;;18.04;49.76
35419;BME280;21525;41.240;16.500;2024-01-15T00:23:53;100696.78;;;17.86;49.69
35419;BME280;21525;41.240;16.500;2024-01-15T00:26:19;100687.59;;;17.54;49.94
35419;BME280;21525;41.240;16.500;2024-01-15T00:28:45;100684.16;;;18.13;49.43
35419;BME280;21525;41.240;16.500;2024-01-15T00:31:10;100689.44;;;17.52;51.41
35419;BME280;21525;41.240;16.500;2024-01-15T00:33:36;100691.78;;;17.38;51.55
35419;BME280;21525;41.240;16.500;2024-01-15T00:36:02;100682.25;;;17.56;51.41
35419;BME280;21525;41.240;16.500;2024-01-15T00:38:28;100683.44;;;17.49;51.96
35419;BME280;21525;41.240;16.500;2024-01-15T00:40:54;100678.84;;;17.54;52.54
35419;BME280;21525;41.240;16.500;2024-01-15T00:43:20;100679.66;;;17.76;51.55
35419;BME280;21525;41.240;16.500;2024-01-15T00:45:46;100664.50;;;18.01;50.45
35419;BME280;21525;41.240;16.500;2024-01-15T00:48:12;100670.72;;;17.80;49.48
35419;BME280;21525;41.240;16.500;2024-01-15T00:50:38;100664.13;;;17.50;50.35
35419;BME280;21525;41.240;16.500;2024-01-15T00:53:04;100663.97;;;17.32;50.19
35419;BME280;21525;41.240;16.500;2024-01-15T00:55:29;100668.91;;;17.40;50.04
35419;BME280;21525;41.240;16.500;2024-01-15T00:57:55;100661.44;;;17.71;49.59
35419;BME280;21525;41.240;16.500;2024-01-15T01:00:21;100661.66;;;17.67;49.78
35419;BME280;21525;41.240;16.500;2024-01-15T01:02:47;100658.84;;;17.90;49.33
35419;BME280;21525;41.240;16.500;2024-01-15T01:05:13;100650.94;;;17.71;49.17
35419;BME280;21525;41.240;16.500;2024-01-15T01:07:38;100649.63;;;17.60;49.21
35419;BME280;21525;41.240;16.500;2024-01-15T01:10:05;100643.72;;;17.95;48.89
35419;BME280;21525;41.240;16.500;2024-01-15T01:12:30;100656.53;;;17.84;48.89
35419;BME280;21525;41.240;16.500;2024-01-15T01:14:56;100650.53;;;18.38;47.87
35419;BME280;21525;41.240;16.500;2024-01-15T01:17:22;100645.47;;;18.15;48.76
35419;BME280;21525;41.240;16.500;2024-01-15T01:19:49;100652.31;;;18.19;48.76
35419;BME280;21525;41.240;16.500;2024-01-15T01:22:15;100641.09;;;17.95;49.20
35419;BME280;21525;41.240;16.500;2024-01-15T01:24:40;100638.38;;;17.97;48.63
35419;BME280;21525;41.240;16.500;2024-01-15T01:27:06;100641.88;;;17.97;48.40
35419;BME280;21525;41.240;16.500;2024-01-15T01:29:32;100654.91;;;18.00;48.13
35419;BME280;21525;41.240;16.500;2024-01-15T01:31:58;100646.38;;;17.75;48.87
35419;BME280;21525;41.240;16.500;2024-01-15T01:34:24;100637.94;;;17.46;49.24
35419;BME280;21525;41.240;16.500;2024-01-15T01:36:49;100633.31;;;17.73;48.91
35419;BME280;21525;41.240;16.500;2024-01-15T01:39:15;100635.38;;;17.45;48.73
35419;BME280;21525;41.240;16.500;2024-01-15T01:41:41;100636.50;;;17.19;49.83
35419;BME280;21525;41.240;16.500;2024-01-15T01:44:07;100630.94;;;17.25;49.65
35419;BME280;21525;41.240;16.500;2024-01-15T01:46:33;100630.09;;;17.25;49.32
35419;BME280;21525;41.240;16.500;2024-01-15T01:49:00;100618.41;;;17.11;50.28
35419;BME280;21525;41.240;16.500;2024-01-15T01:51:31;100606.66;;;17.40;49.61
35419;BME280;21525;41.240;16.500;2024-01-15T01:53:57;100617.31;;;17.17;50.08
35419;BME280;21525;41.240;16.500;2024-01-15T01:56:23;100599.81;;;17.16;50.18
35419;BME280;21525;41.240;16.500;2024-01-15T01:58:49;100594.75;;;17.32;50.23
35419;BME280;21525;41.240;16.500;2024-01-15T02:01:16;100599.09;;;17.12;50.37
35419;BME280;21525;41.240;16.500;2024-01-15T02:03:43;100590.53;;;17.28;50.13
35419;BME280;21525;41.240;16.500;2024-01-15T02:06:09;100583.22;;;17.55;49.34
35419;BME280;21525;41.240;16.500;2024-01-15T02:08:35;100570.50;;;16.85;50.62
35419;BME280;21525;41.240;16.500;2024-01-15T02:11:00;100568.09;;;17.21;50.41
35419;BME280;21525;41.240;16.500;2024-01-15T02:13:26;100559.44;;;16.97;50.79
35419;BME280;21525;41.240;16.500;2024-01-15T02:15:52;100557.75;;;16.96;51.39
35419;BME280;21525;41.240;16.500;2024-01-15T02:18:17;100555.09;;;16.54;52.09
35419;BME280;21525;41.240;16.500;2024-01-15T02:20:43;100538.78;;;16.45;52.79
35419;BME280;21525;41.240;16.500;2024-01-15T02:23:10;100537.13;;;16.21;54.17
35419;BME280;21525;41.240;16.500;2024-01-15T02:25:43;100536.09;;;16.47;54.06
35419;BME280;21525;41.240;16.500;2024-01-15T02:28:14;100518.09;;;16.16;55.15
35419;BME280;21525;41.240;16.500;2024-01-15T02:30:41;100522.78;;;16.08;55.50
35419;BME280;21525;41.240;16.500;2024-01-15T02:33:08;100506.34;;;16.68;54.75
35419;BME280;21525;41.240;16.500;2024-01-15T02:35:35;100509.34;;;16.16;56.22
35419;BME280;21525;41.240;16.500;2024-01-15T02:38:04;100512.94;;;16.78;54.89
35419;BME280;21525;41.240;16.500;2024-01-15T02:40:30;100514.91;;;16.73;54.79
35419;BME280;21525;41.240;16.500;2024-01-15T02:42:56;100514.72;;;17.58;53.36
35419;BME280;21525;41.240;16.500;2024-01-15T02:45:22;100510.91;;;16.63;55.23
35419;BME280;21525;41.240;16.500;2024-01-15T02:47:48;100514.44;;;16.62;55.89
35419;BME280;21525;41.240;16.500;2024-01-15T02:50:14;100509.28;;;16.39;57.26
35419;BME280;21525;41.240;16.500;2024-01-15T02:52:44;100512.09;;;16.34;58.74
35419;BME280;21525;41.240;16.500;2024-01-15T02:55:10;100506.56;;;16.62;58.32
35419;BME280;21525;41.240;16.500;2024-01-15T02:57:36;100502.19;;;16.63;58.61
35419;BME280;21525;41.240;16.500;2024-01-15T03:00:02;100505.59;;;16.87;58.47
35419;BME280;21525;41.240;16.500;2024-01-15T03:02:29;100511.53;;;16.26;60.58
35419;BME280;21525;41.240;16.500;2024-01-15T03:04:57;100499.66;;;16.39;60.77
35419;BME280;21525;41.240;16.500;2024-01-15T03:07:23;100491.97;;;16.13;61.28
35419;BME280;21525;41.240;16.500;2024-01-15T03:09:48;100481.63;;;16.52;60.97
35419;BME280;21525;41.240;16.500;2024-01-15T03:12:15;100481.56;;;15.65;63.60
35419;BME280;21525;41.240;16.500;2024-01-15T03:14:41;100485.34;;;16.25;62.17
35419;BME280;21525;41.240;16.500;2024-01-15T03:17:06;100467.91;;;15.80;64.00
35419;BME280;21525;41.240;16.500;2024-01-15T03:19:35;100472.13;;;16.28;63.01
35419;BME280;21525;41.240;16.500;2024-01-15T03:22:01;100468.56;;;16.29;62.51
35419;BME280;21525;41.240;16.500;2024-01-15T03:24:28;100468.59;;;15.85;64.71
35419;BME280;21525;41.240;16.500;2024-01-15T03:26:53;100457.13;;;15.64;65.59
35419;BME280;21525;41.240;16.500;2024-01-15T03:29:19;100464.31;;;16.26;63.63
35419;BME280;21525;41.240;16.500;2024-01-15T03:31:45;100458.13;;;16.27;62.82
35419;BME280;21525;41.240;16.500;2024-01-15T03:34:11;100450.75;;;16.37;62.34
35419;BME280;21525;41.240;16.500;2024-01-15T03:36:36;100449.94;;;16.15;64.08
35419;BME280;21525;41.240;16.500;2024-01-15T03:39:02;100444.00;;;16.09;63.07
35419;BME280;21525;41.240;16.500;2024-01-15T03:41:28;100433.03;;;16.22;63.11
35419;BME280;21525;41.240;16.500;2024-01-15T03:43:54;100431.78;;;16.08;64.81
35419;BME280;21525;41.240;16.500;2024-01-15T03:46:19;100434.03;;;15.96;64.77
35419;BME280;21525;41.240;16.500;2024-01-15T03:48:45;100438.75;;;15.88;66.67
35419;BME280;21525;41.240;16.500;2024-01-15T03:51:11;100432.63;;;16.31;65.14
35419;BME280;21525;41.240;16.500;2024-01-15T03:53:38;100431.75;;;15.88;65.77
35419;BME280;21525;41.240;16.500;2024-01-15T03:56:04;100423.66;;;15.71;66.58
35419;BME280;21525;41.240;16.500;2024-01-15T03:58:30;100427.41;;;15.87;66.78
35419;BME280;21525;41.240;16.500;2024-01-15T04:00:55;100418.78;;;15.62;67.01
35419;BME280;21525;41.240;16.500;2024-01-15T04:03:21;100406.81;;;15.55;68.08
35419;BME280;21525;41.240;16.500;2024-01-15T04:05:47;100405.16;;;15.29;69.35
35419;BME280;21525;41.240;16.500;2024-01-15T04:08:12;100396.88;;;15.63;69.32
35419;BME280;21525;41.240;16.500;2024-01-15T04:10:38;100401.09;;;15.43;71.35
35419;BME280;21525;41.240;16.500;2024-01-15T04:13:04;100396.84;;;15.41;71.14
35419;BME280;21525;41.240;16.500;2024-01-15T04:15:30;100388.06;;;15.42;73.06
35419;BME280;21525;41.240;16.500;2024-01-15T04:17:55;100378.47;;;15.19;73.89
35419;BME280;21525;41.240;16.500;2024-01-15T04:20:21;100384.34;;;15.71;73.57
35419;BME280;21525;41.240;16.500;2024-01-15T04:22:47;100371.47;;;15.65;72.55
35419;BME280;21525;41.240;16.500;2024-01-15T04:25:13;100365.38;;;15.41;72.71
35419;BME280;21525;41.240;16.500;2024-01-15T04:27:38;100362.84;;;15.16;75.12
35419;BME280;21525;41.240;16.500;2024-01-15T04:30:04;100360.53;;;15.54;75.20
35419;BME280;21525;41.240;16.500;2024-01-15T04:32:30;100362.63;;;15.22;76.24
35419;BME280;21525;41.240;16.500;2024-01-15T04:34:56;100351.91;;;15.05;77.02
35419;BME280;21525;41.240;16.500;2024-01-15T04:37:22;100345.81;;;16.15;71.91
35419;BME280;21525;41.240;16.500;2024-01-15T04:39:48;100355.53;;;15.48;74.42
35419;BME280;21525;41.240;16.500;2024-01-15T04:42:13;100344.34;;;15.42;74.16
35419;BME280;21525;41.240;16.500;2024-01-15T04:44:39;100343.28;;;15.70;74.64
35419;BME280;21525;41.240;16.500;2024-01-15T04:47:05;100331.94;;;15.26;74.76
35419;BME280;21525;41.240;16.500;2024-01-15T04:49:31;100340.91;;;14.95;77.69
35419;BME280;21525;41.240;16.500;2024-01-15T04:51:56;100332.47;;;15.34;75.43
35419;BME280;21525;41.240;16.500;2024-01-15T04:54:22;100328.44;;;15.02;76.42
35419;BME280;21525;41.240;16.500;2024-01-15T04:56:48;100326.13;;;15.39;74.86
35419;BME280;21525;41.240;16.500;2024-01-15T04:59:13;100327.44;;;15.28;76.46
35419;BME280;21525;41.240;16.500;2024-01-15T05:01:40;100328.75;;;16.05;72.17
35419;BME280;21525;41.240;16.500;2024-01-15T05:04:05;100322.38;;;15.90;71.93
35419;BME280;21525;41.240;16.500;2024-01-15T05:06:31;100315.16;;;15.95;71.88
35419;BME280;21525;41.240;16.500;2024-01-15T05:08:57;100304.13;;;15.22;72.13
35419;BME280;21525;41.240;16.500;2024-01-15T05:11:23;100303.34;;;15.41;73.87
35419;BME280;21525;41.240;16.500;2024-01-15T05:13:49;100304.53;;;15.78;71.97
35419;BME280;21525;41.240;16.500;2024-01-15T05:16:14;100297.09;;;15.67;71.88
35419;BME280;21525;41.240;16.500;2024-01-15T05:18:40;100289.56;;;15.80;71.15
35419;BME280;21525;41.240;16.500;2024-01-15T05:21:06;100292.47;;;15.94;69.04
35419;BME280;21525;41.240;16.500;2024-01-15T05:23:32;100291.31;;;15.59;71.73
35419;BME280;21525;41.240;16.500;2024-01-15T05:25:57;100298.03;;;16.27;69.44
35419;BME280;21525;41.240;16.500;2024-01-15T05:28:23;100286.44;;;15.92;69.73
35419;BME280;21525;41.240;16.500;2024-01-15T05:30:49;100287.75;;;16.43;68.44
35419;BME280;21525;41.240;16.500;2024-01-15T05:33:16;100286.38;;;16.34;68.76
35419;BME280;21525;41.240;16.500;2024-01-15T05:35:42;100280.13;;;15.96;69.89
35419;BME280;21525;41.240;16.500;2024-01-15T05:38:08;100281.19;;;16.33;69.48
35419;BME280;21525;41.240;16.500;2024-01-15T05:40:34;100276.63;;;16.77;67.34
35419;BME280;21525;41.240;16.500;2024-01-15T05:43:00;100284.44;;;16.58;66.99
35419;BME280;21525;41.240;16.500;2024-01-15T05:45:26;100279.19;;;16.58;67.53
35419;BME280;21525;41.240;16.500;2024-01-15T05:47:52;100281.59;;;16.03;69.27
35419;BME280;21525;41.240;16.500;2024-01-15T05:50:18;100271.31;;;16.19;67.94
35419;BME280;21525;41.240;16.500;2024-01-15T05:52:44;100270.69;;;16.33;68.44
35419;BME280;21525;41.240;16.500;2024-01-15T05:55:09;100263.88;;;16.29;67.71
35419;BME280;21525;41.240;16.500;2024-01-15T05:57:36;100251.94;;;15.81;68.33
35419;BME280;21525;41.240;16.500;2024-01-15T06:00:03;100246.84;;;16.19;68.32
35419;BME280;21525;41.240;16.500;2024-01-15T06:02:31;100245.03;;;16.78;65.90
35419;BME280;21525;41.240;16.500;2024-01-15T06:04:57;100253.91;;;15.96;67.43
35419;BME280;21525;41.240;16.500;2024-01-15T06:07:23;100244.59;;;16.09;67.12
35419;BME280;21525;41.240;16.500;2024-01-15T06:09:49;100236.47;;;16.55;64.92
35419;BME280;21525;41.240;16.500;2024-01-15T06:12:15;100223.59;;;16.69;64.69
35419;BME280;21525;41.240;16.500;2024-01-15T06:14:41;100226.09;;;16.12;65.23
35419;BME280;21525;41.240;16.500;2024-01-15T06:17:08;100227.25;;;15.87;67.15
35419;BME280;21525;41.240;16.500;2024-01-15T06:19:33;100229.66;;;16.51;64.45
35419;BME280;21525;41.240;16.500;2024-01-15T06:21:59;100221.47;;;16.38;66.12
35419;BME280;21525;41.240;16.500;2024-01-15T06:24:25;100208.03;;;16.25;65.76
35419;BME280;21525;41.240;16.500;2024-01-15T06:26:51;100214.25;;;16.43;64.75
35419;BME280;21525;41.240;16.500;2024-01-15T06:29:16;100208.41;;;16.36;65.92
35419;BME280;21525;41.240;16.500;2024-01-15T06:31:42;100199.72;;;16.55;65.35
35419;BME280;21525;41.240;16.500;2024-01-15T06:34:18;100200.28;;;16.61;66.02
35419;BME280;21525;41.240;16.500;2024-01-15T06:36:44;100198.44;;;16.63;65.81
35419;BME280;21525;41.240;16.500;2024-01-15T06:39:10;100202.75;;;16.06;67.77
35419;BME280;21525;41.240;16.500;2024-01-15T06:41:36;100201.44;;;16.56;66.35
35419;BME280;21525;41.240;16.500;2024-01-15T06:44:11;100187.59;;;17.26;63.34
35419;BME280;21525;41.240;16.500;2024-01-15T06:46:42;100203.88;;;16.40;67.40
35419;BME280;21525;41.240;16.500;2024-01-15T06:49:08;100197.16;;;16.91;66.64
35419;BME280;21525;41.240;16.500;2024-01-15T06:51:35;100199.41;;;16.42;67.94
35419;BME280;21525;41.240;16.500;2024-01-15T06:54:01;100193.03;;;17.04;66.14
35419;BME280;21525;41.240;16.500;2024-01-15T06:56:26;100197.72;;;16.41;68.26
35419;BME280;21525;41.240;16.500;2024-01-15T06:58:52;100197.66;;;16.61;68.00
35419;BME280;21525;41.240;16.500;2024-01-15T07:01:18;100194.03;;;16.45;68.22
35419;BME280;21525;41.240;16.500;2024-01-15T07:03:44;100196.13;;;16.76;67.57
35419;BME280;21525;41.240;16.500;2024-01-15T07:06:10;100184.25;;;17.05;66.59
35419;BME280;21525;41.240;16.500;2024-01-15T07:08:37;100194.06;;;16.83;67.32
35419;BME280;21525;41.240;16.500;2024-01-15T07:11:04;100198.81;;;16.74;67.89
35419;BME280;21525;41.240;16.500;2024-01-15T07:13:30;100190.19;;;16.33;70.36
35419;BME280;21525;41.240;16.500;2024-01-15T07:15:56;100191.66;;;16.78;68.87
35419;BME280;21525;41.240;16.500;2024-01-15T07:18:21;100184.50;;;17.18;67.55
35419;BME280;21525;41.240;16.500;2024-01-15T07:20:47;100182.25;;;16.35;69.79
35419;BME280;21525;41.240;16.500;2024-01-15T07:23:13;100187.22;;;16.41;70.20
35419;BME280;21525;41.240;16.500;2024-01-15T07:25:39;100182.25;;;16.35;70.04
35419;BME280;21525;41.240;16.500;2024-01-15T07:28:04;100182.44;;;16.30;70.57
35419;BME280;21525;41.240;16.500;2024-01-15T07:30:30;100181.59;;;16.88;69.01
35419;BME280;21525;41.240;16.500;2024-01-15T07:32:56;100177.97;;;16.71;70.13
35419;BME280;21525;41.240;16.500;2024-01-15T07:35:22;100174.56;;;16.88;70.08
35419;BME280;21525;41.240;16.500;2024-01-15T07:37:48;100177.84;;;16.92;69.20
35419;BME280;21525;41.240;16.500;2024-01-15T07:40:13;100173.84;;;16.85;69.72
35419;BME280;21525;41.240;16.500;2024-01-15T07:42:39;100173.03;;;17.01;68.77
35419;BME280;21525;41.240;16.500;2024-01-15T07:45:05;100172.91;;;16.48;70.66
35419;BME280;21525;41.240;16.500;2024-01-15T07:47:31;100164.19;;;17.21;68.77
35419;BME280;21525;41.240;16.500;2024-01-15T07:49:57;100171.06;;;16.69;70.49
35419;BME280;21525;41.240;16.500;2024-01-15T07:52:23;100171.31;;;17.00;70.75
35419;BME280;21525;41.240;16.500;2024-01-15T07:54:48;100160.94;;;17.16;68.84
35419;BME280;21525;41.240;16.500;2024-01-15T07:57:14;100156.66;;;16.77;71.00
35419;BME280;21525;41.240;16.500;2024-01-15T07:59:40;100155.03;;;16.75;71.09
35419;BME280;21525;41.240;16.500;2024-01-15T08:02:06;100159.41;;;16.56;71.44
35419;BME280;21525;41.240;16.500;2024-01-15T08:04:31;100154.34;;;17.25;69.37
35419;BME280;21525;41.240;16.500;2024-01-15T08:06:57;100153.19;;;17.30;68.27
35419;BME280;21525;41.240;16.500;2024-01-15T08:09:23;100157.66;;;17.11;68.63
35419;BME280;21525;41.240;16.500;2024-01-15T08:11:49;100155.00;;;16.94;69.92
35419;BME280;21525;41.240;16.500;2024-01-15T08:14:15;100148.75;;;17.84;66.22
35419;BME280;21525;41.240;16.500;2024-01-15T08:16:41;100152.63;;;16.89;69.13
35419;BME280;21525;41.240;16.500;2024-01-15T08:19:09;100153.16;;;16.96;70.51
35419;BME280;21525;41.240;16.500;2024-01-15T08:21:34;100154.31;;;16.53;71.31
35419;BME280;21525;41.240;16.500;2024-01-15T08:24:01;100152.13;;;17.17;69.44
35419;BME280;21525;41.240;16.500;2024-01-15T08:26:30;100152.84;;;17.02;69.40
35419;BME280;21525;41.240;16.500;2024-01-15T08:28:55;100157.91;;;17.24;68.29
35419;BME280;21525;41.240;16.500;2024-01-15T08:31:21;100155.84;;;16.94;69.17
35419;BME280;21525;41.240;16.500;2024-01-15T08:33:47;100157.53;;;17.14;68.29
35419;BME280;21525;41.240;16.500;2024-01-15T08:36:13;100155.53;;;17.19;68.13
35419;BME280;21525;41.240;16.500;2024-01-15T08:38:39;100156.00;;;17.44;66.62
35419;BME280;21525;41.240;16.500;2024-01-15T08:41:05;100155.19;;;17.25;68.52
35419;BME280;21525;41.240;16.500;2024-01-15T08:43:30;100167.44;;;17.61;65.93
35419;BME280;21525;41.240;16.500;2024-01-15T08:45:56;100162.06;;;17.10;66.53
35419;BME280;21525;41.240;16.500;2024-01-15T08:48:22;100167.75;;;17.37;66.21
35419;BME280;21525;41.240;16.500;2024-01-15T08:50:48;100168.78;;;17.52;66.25
35419;BME280;21525;41.240;16.500;2024-01-15T08:53:14;100167.59;;;17.58;64.91
35419;BME280;21525;41.240;16.500;2024-01-15T08:55:40;100170.38;;;17.20;66.67
35419;BME280;21525;41.240;16.500;2024-01-15T08:58:08;100174.28;;;17.65;63.88
35419;BME280;21525;41.240;16.500;2024-01-15T09:00:34;100162.78;;;17.14;65.64
35419;BME280;21525;41.240;16.500;2024-01-15T09:03:00;100163.19;;;17.41;64.94
35419;BME280;21525;41.240;16.500;2024-01-15T09:05:25;100162.72;;;17.33;64.49
35419;BME280;21525;41.240;16.500;2024-01-15T09:07:51;100165.56;;;17.97;63.18
35419;BME280;21525;41.240;16.500;2024-01-15T09:10:18;100163.75;;;17.65;62.94
35419;BME280;21525;41.240;16.500;2024-01-15T09:12:44;100173.19;;;17.52;62.57
35419;BME280;21525;41.240;16.500;2024-01-15T09:15:10;100164.00;;;17.77;62.26
35419;BME280;21525;41.240;16.500;2024-01-15T09:17:36;100154.63;;;18.54;59.66
35419;BME280;21525;41.240;16.500;2024-01-15T09:20:03;100158.59;;;18.13;60.34
35419;BME280;21525;41.240;16.500;2024-01-15T09:22:31;100148.75;;;18.82;58.77
35419;BME280;21525;41.240;16.500;2024-01-15T09:24:57;100146.44;;;18.60;58.99
35419;BME280;21525;41.240;16.500;2024-01-15T09:27:23;100146.25;;;18.94;57.91
35419;BME280;21525;41.240;16.500;2024-01-15T09:29:54;100143.44;;;19.13;57.92
35419;BME280;21525;41.240;16.500;2024-01-15T09:32:20;100131.19;;;19.12;58.26
35419;BME280;21525;41.240;16.500;2024-01-15T09:34:46;100129.06;;;19.49;56.46
35419;BME280;21525;41.240;16.500;2024-01-15T09:37:14;100120.50;;;19.29;57.10
35419;BME280;21525;41.240;16.500;2024-01-15T09:39:40;100117.34;;;19.38;57.16
35419;BME280;21525;41.240;16.500;2024-01-15T09:42:06;100112.41;;;19.32;57.14
35419;BME280;21525;41.240;16.500;2024-01-15T09:44:34;100110.03;;;19.28;58.07
35419;BME280;21525;41.240;16.500;2024-01-15T09:47:00;100112.38;;;18.72;59.24
35419;BME280;21525;41.240;16.500;2024-01-15T09:49:26;100112.28;;;18.74;58.24
35419;BME280;21525;41.240;16.500;2024-01-15T09:51:53;100112.09;;;19.23;58.45
35419;BME280;21525;41.240;16.500;2024-01-15T09:54:20;100108.81;;;19.49;57.29
35419;BME280;21525;41.240;16.500;2024-01-15T09:56:47;100110.94;;;20.01;55.42
35419;BME280;21525;41.240;16.500;2024-01-15T09:59:18;100104.63;;;19.75;56.40
35419;BME280;21525;41.240;16.500;2024-01-15T10:01:44;100100.88;;;20.63;54.64
35419;BME280;21525;41.240;16.500;2024-01-15T10:04:13;100098.56;;;19.87;55.23
35419;BME280;21525;41.240;16.500;2024-01-15T10:06:44;100096.91;;;19.42;57.31
35419;BME280;21525;41.240;16.500;2024-01-15T10:09:13;100100.19;;;19.75;57.06
35419;BME280;21525;41.240;16.500;2024-01-15T10:11:43;100090.84;;;19.98;56.55
35419;BME280;21525;41.240;16.500;2024-01-15T10:14:10;100084.34;;;19.31;57.86
35419;BME280;21525;41.240;16.500;2024-01-15T10:16:39;100084.22;;;19.19;57.86
35419;BME280;21525;41.240;16.500;2024-01-15T10:19:05;100074.78;;;19.44;58.11
35419;BME280;21525;41.240;16.500;2024-01-15T10:21:32;100068.78;;;20.42;56.01
35419;BME280;21525;41.240;16.500;2024-01-15T10:24:01;100071.88;;;20.34;55.39
35419;BME280;21525;41.240;16.500;2024-01-15T10:26:27;100069.19;;;19.79;56.65
35419;BME280;21525;41.240;16.500;2024-01-15T10:28:52;100061.94;;;19.68;57.35
35419;BME280;21525;41.240;16.500;2024-01-15T10:31:18;100063.88;;;18.91;59.67
35419;BME280;21525;41.240;16.500;2024-01-15T10:33:48;100056.34;;;19.59;57.44
35419;BME280;21525;41.240;16.500;2024-01-15T10:36:15;100041.88;;;19.80;57.21
35419;BME280;21525;41.240;16.500;2024-01-15T10:38:43;100039.41;;;19.77;58.20
35419;BME280;21525;41.240;16.500;2024-01-15T10:41:09;100046.06;;;19.83;57.38
35419;BME280;21525;41.240;16.500;2024-01-15T10:43:34;100042.03;;;19.63;57.79
35419;BME280;21525;41.240;16.500;2024-01-15T10:46:01;100032.31;;;20.06;56.83
35419;BME280;21525;41.240;16.500;2024-01-15T10:48:27;100020.81;;;20.48;55.54
35419;BME280;21525;41.240;16.500;2024-01-15T10:50:55;100031.63;;;20.17;56.42
35419;BME280;21525;41.240;16.500;2024-01-15T10:53:23;100020.03;;;20.60;55.46
35419;BME280;21525;41.240;16.500;2024-01-15T10:55:50;100015.34;;;20.10;56.85
35419;BME280;21525;41.240;16.500;2024-01-15T10:58:17;100003.00;;;20.10;56.95
35419;BME280;21525;41.240;16.500;2024-01-15T11:00:44;99993.41;;;19.67;57.64
35419;BME280;21525;41.240;16.500;2024-01-15T11:03:10;99981.88;;;19.25;58.60
35419;BME280;21525;41.240;16.500;2024-01-15T11:05:41;99985.41;;;19.54;57.09
35419;BME280;21525;41.240;16.500;2024-01-15T11:08:08;99985.09;;;19.44;57.70
35419;BME280;21525;41.240;16.500;2024-01-15T11:10:47;99986.91;;;20.28;56.23
35419;BME280;21525;41.240;16.500;2024-01-15T11:13:19;99987.00;;;19.71;57.57
35419;BME280;21525;41.240;16.500;2024-01-15T11:18:21;99965.81;;;19.72;56.86
35419;BME280;21525;41.240;16.500;2024-01-15T11:23:45;99955.50;;;19.82;57.46
35419;BME280;21525;41.240;16.500;2024-01-15T11:26:45;99956.59;;;20.60;56.26
35419;BME280;21525;41.240;16.500;2024-01-15T11:34:21;99949.34;;;20.37;56.90
35419;BME280;21525;41.240;16.500;2024-01-15T11:37:07;99951.47;;;20.18;57.20
35419;BME280;21525;41.240;16.500;2024-01-15T11:42:02;99937.47;;;20.30;56.95
35419;BME280;21525;41.240;16.500;2024-01-15T11:44:31;99943.13;;;20.77;55.50
35419;BME280;21525;41.240;16.500;2024-01-15T11:47:00;99936.03;;;20.78;56.11
35419;BME280;21525;41.240;16.500;2024-01-15T11:52:20;99928.66;;;21.08;55.36
35419;BME280;21525;41.240;16.500;2024-01-15T11:55:17;99924.41;;;20.68;56.16
35419;BME280;21525;41.240;16.500;2024-01-15T11:57:51;99916.06;;;20.74;55.86
35419;BME280;21525;41.240;16.500;2024-01-15T12:00:18;99915.56;;;20.42;56.76
35419;BME280;21525;41.240;16.500;2024-01-15T12:02:45;99907.50;;;20.96;55.49
35419;BME280;21525;41.240;16.500;2024-01-15T12:05:13;99903.28;;;21.06;55.11
35419;BME280;21525;41.240;16.500;2024-01-15T12:07:43;99908.00;;;20.63;55.86
35419;BME280;21525;41.240;16.500;2024-01-15T12:10:13;99900.44;;;21.34;54.72
35419;BME280;21525;41.240;16.500;2024-01-15T12:12:58;99896.50;;;20.89;55.91
35419;BME280;21525;41.240;16.500;2024-01-15T12:15:27;99895.75;;;20.35;57.05
35419;BME280;21525;41.240;16.500;2024-01-15T12:17:55;99898.59;;;20.32;57.02
35419;BME280;21525;41.240;16.500;2024-01-15T12:20:21;99892.91;;;20.77;56.09
35419;BME280;21525;41.240;16.500;2024-01-15T12:22:47;99896.59;;;21.13;54.82
35419;BME280;21525;41.240;16.500;2024-01-15T12:25:12;99889.31;;;21.04;55.99
35419;BME280;21525;41.240;16.500;2024-01-15T12:27:38;99886.66;;;20.91;56.61
35419;BME280;21525;41.240;16.500;2024-01-15T12:30:04;99879.53;;;21.79;54.28
35419;BME280;21525;41.240;16.500;2024-01-15T12:32:30;99884.84;;;20.66;56.58
35419;BME280;21525;41.240;16.500;2024-01-15T12:34:56;99876.91;;;21.17;56.01
35419;BME280;21525;41.240;16.500;2024-01-15T12:37:22;99878.00;;;21.40;54.76
35419;BME280;21525;41.240;16.500;2024-01-15T12:39:47;99875.88;;;21.07;55.78
35419;BME280;21525;41.240;16.500;2024-01-15T12:42:16;99875.88;;;21.32;55.75
35419;BME280;21525;41.240;16.500;2024-01-15T12:44:44;99873.59;;;22.01;53.91
35419;BME280;21525;41.240;16.500;2024-01-15T12:47:10;99880.00;;;21.11;56.29
35419;BME280;21525;41.240;16.500;2024-01-15T12:49:37;99875.97;;;21.18;55.54
35419;BME280;21525;41.240;16.500;2024-01-15T12:52:03;99880.56;;;21.65;54.99
35419;BME280;21525;41.240;16.500;2024-01-15T12:54:29;99878.31;;;21.72;54.77